Time;durP1;ratioP1;P1;durP2;ratioP2;P2;SDS_P1;SDS_P2;PMS_P1;PMS_P2;Temp;Humidity;BMP_temperature;BMP_pressure;BME280_temperature;BME280_humidity;BME280_pressure;Samples;Min_cycle;Max_cycle;Signal;HPM_P1;HPM_P2
2023/10/05 00:04:40;;;;;;;;;;;14.20;99.90;;;;;;5115400;28;19924;-41
2023/10/05 00:07:06;;;;;;;;;;;14.20;99.90;;;;;;5115253;28;19928;-41
2023/10/05 00:09:32;;;;;;;;;;;14.20;99.90;;;;;;5115234;28;19967;-41
2023/10/05 00:12:01;;;;;;;;;;;14.20;99.90;;;;;;5115268;28;19989;-41
2023/10/05 00:14:27;;;;;;;;;;;14.20;99.90;;;;;;5114955;28;19928;-41
2023/10/05 00:16:55;;;;;;;;;;;14.20;99.90;;;;;;5114603;28;19923;-41
2023/10/05 00:19:21;;;;;;;;;;;14.20;99.90;;;;;;5114967;28;20370;-41
2023/10/05 00:21:51;;;;;;;;;;;14.20;99.90;;;;;;5113890;28;20382;-41
2023/10/05 00:24:29;;;;;;;;;;;14.20;99.90;;;;;;5114764;28;19924;-41
2023/10/05 00:26:56;;;;;;;;;;;14.20;99.90;;;;;;5115015;28;19923;-40
2023/10/05 00:29:27;;;;;;;;;;;14.20;99.90;;;;;;5114926;28;19963;-40
2023/10/05 00:31:55;;;;;;;;;;;14.20;99.90;;;;;;5114941;28;19924;-41
2023/10/05 00:36:50;;;;;;;;;;;14.20;99.90;;;;;;5114684;28;19975;-41
2023/10/05 00:39:19;;;;;;;;;;;14.20;99.90;;;;;;5114697;28;19924;-41
2023/10/05 00:41:45;;;;;;;;;;;14.20;99.90;;;;;;5114745;28;19924;-41
2023/10/05 00:44:12;;;;;;;;;;;14.20;99.90;;;;;;5114754;28;19928;-41
2023/10/05 00:46:39;;;;;;;;;;;14.20;99.90;;;;;;5114593;28;19924;-41
2023/10/05 00:49:16;;;;;;;;;;;14.30;99.90;;;;;;5114489;28;20378;-41
2023/10/05 00:51:44;;;;;;;;;;;14.20;99.90;;;;;;5114701;28;19978;-41
2023/10/05 00:54:18;;;;;;;;;;;14.30;99.90;;;;;;5114596;28;19932;-41
2023/10/05 00:56:45;;;;;;;;;;;14.20;99.90;;;;;;5114612;28;19988;-41
2023/10/05 00:59:20;;;;;;;;;;;14.20;99.90;;;;;;5114415;28;19924;-41
2023/10/05 01:04:26;;;;;;;;;;;14.20;99.90;;;;;;5115176;28;19988;-41
2023/10/05 01:07:07;;;;;;;;;;;14.20;99.90;;;;;;5114454;28;19924;-41
2023/10/05 01:09:52;;;;;;;;;;;14.20;99.90;;;;;;5114412;28;19931;-41
2023/10/05 01:14:52;;;;;;;;;;;14.20;99.90;;;;;;5114481;28;19934;-41
2023/10/05 01:17:20;;;;;;;;;;;14.10;99.90;;;;;;5114302;28;20080;-41
2023/10/05 01:19:54;;;;;;;;;;;14.10;99.90;;;;;;5114471;28;19967;-40
2023/10/05 01:22:21;;;;;;;;;;;14.10;99.90;;;;;;5114322;28;20011;-41
2023/10/05 01:24:50;;;;;;;;;;;14.10;99.90;;;;;;5114061;28;19934;-41
2023/10/05 01:27:16;;;;;;;;;;;14.20;99.90;;;;;;5117239;28;19924;-40
2023/10/05 01:29:43;;;;;;;;;;;14.20;99.90;;;;;;5117724;28;19923;-41
2023/10/05 01:32:10;;;;;;;;;;;14.10;99.90;;;;;;5118329;28;19969;-41
2023/10/05 01:34:36;;;;;;;;;;;14.10;99.90;;;;;;5118128;27;20379;-41
2023/10/05 01:37:03;;;;;;;;;;;14.20;99.90;;;;;;5118046;28;19924;-41
2023/10/05 01:39:32;;;;;;;;;;;14.10;99.90;;;;;;5118202;27;19928;-41
2023/10/05 01:41:59;;;;;;;;;;;14.10;99.90;;;;;;5118247;28;19924;-41
2023/10/05 01:44:25;;;;;;;;;;;14.10;99.90;;;;;;5118087;28;19931;-41
2023/10/05 01:46:55;;;;;;;;;;;14.10;99.90;;;;;;5118025;28;20279;-41
2023/10/05 01:49:20;;;;;;;;;;;14.10;99.90;;;;;;5118043;27;20298;-41
2023/10/05 01:51:47;;;;;;;;;;;14.10;99.90;;;;;;5117803;28;19924;-41
2023/10/05 01:54:15;;;;;;;;;;;14.10;99.90;;;;;;5117981;27;19924;-41
2023/10/05 01:56:43;;;;;;;;;;;14.10;99.90;;;;;;5117642;28;20335;-41
2023/10/05 01:59:12;;;;;;;;;;;14.10;99.90;;;;;;5117751;28;19927;-41
2023/10/05 02:01:40;;;;;;;;;;;14.10;99.90;;;;;;5117565;28;20018;-41
2023/10/05 02:04:06;;;;;;;;;;;14.10;99.90;;;;;;5117646;27;19979;-43
2023/10/05 02:06:41;;;;;;;;;;;14.10;99.90;;;;;;5117441;28;19923;-41
2023/10/05 02:09:10;;;;;;;;;;;14.10;99.90;;;;;;5117666;28;19924;-41
2023/10/05 02:11:36;;;;;;;;;;;14.10;99.90;;;;;;5117640;27;20382;-41
2023/10/05 02:14:03;;;;;;;;;;;14.10;99.90;;;;;;5117361;28;19975;-41
2023/10/05 02:16:30;;;;;;;;;;;14.10;99.90;;;;;;5116285;28;19935;-41
2023/10/05 02:18:56;;;;;;;;;;;14.10;99.90;;;;;;5117119;28;19967;-41
2023/10/05 02:21:30;;;;;;;;;;;14.10;99.90;;;;;;5117444;28;19924;-41
2023/10/05 02:24:10;;;;;;;;;;;14.10;99.90;;;;;;5117455;28;20297;-41
2023/10/05 02:26:36;;;;;;;;;;;14.10;99.90;;;;;;5117276;28;20397;-41
2023/10/05 02:29:14;;;;;;;;;;;14.20;99.90;;;;;;5117041;28;20366;-41
2023/10/05 02:34:28;;;;;;;;;;;14.20;99.90;;;;;;5117250;28;19923;-41
2023/10/05 02:36:54;;;;;;;;;;;14.20;99.90;;;;;;5115995;28;20018;-41
2023/10/05 02:39:22;;;;;;;;;;;14.20;99.90;;;;;;5116268;28;19984;-41
2023/10/05 02:41:50;;;;;;;;;;;14.30;99.90;;;;;;5116853;28;19977;-41
2023/10/05 02:46:48;;;;;;;;;;;14.30;99.90;;;;;;5117088;28;19924;-41
2023/10/05 02:49:15;;;;;;;;;;;14.30;99.90;;;;;;5115628;28;19934;-42
2023/10/05 02:51:41;;;;;;;;;;;14.20;99.90;;;;;;5116829;28;19923;-41
2023/10/05 02:54:10;;;;;;;;;;;14.20;99.90;;;;;;5116679;27;20342;-41
2023/10/05 02:56:36;;;;;;;;;;;14.30;99.90;;;;;;5116547;28;20374;-41
2023/10/05 02:59:03;;;;;;;;;;;14.20;99.90;;;;;;5115939;28;19923;-41
2023/10/05 03:01:32;;;;;;;;;;;14.20;99.90;;;;;;5116588;28;19924;-41
2023/10/05 03:04:09;;;;;;;;;;;14.20;99.90;;;;;;5116577;28;19924;-41
2023/10/05 03:06:35;;;;;;;;;;;14.20;99.90;;;;;;5116568;28;19924;-41
2023/10/05 03:09:07;;;;;;;;;;;14.20;99.90;;;;;;5115476;28;19931;-41
2023/10/05 03:11:50;;;;;;;;;;;14.20;99.90;;;;;;5116383;28;19949;-41
2023/10/05 03:14:16;;;;;;;;;;;14.20;99.90;;;;;;5132592;27;20374;-41
2023/10/05 03:16:48;;;;;;;;;;;14.20;99.90;;;;;;5116092;28;19924;-41
2023/10/05 03:19:20;;;;;;;;;;;14.20;99.90;;;;;;5116116;28;20022;-42
2023/10/05 03:21:47;;;;;;;;;;;14.20;99.90;;;;;;5116769;28;19924;-41
2023/10/05 03:24:15;;;;;;;;;;;14.20;99.90;;;;;;5115528;28;19959;-41
2023/10/05 03:26:41;;;;;;;;;;;14.30;99.90;;;;;;5116015;28;19976;-41
2023/10/05 03:29:11;;;;;;;;;;;14.30;99.90;;;;;;5116084;28;19923;-42
2023/10/05 03:32:04;;;;;;;;;;;14.30;99.90;;;;;;5115858;28;19924;-41
2023/10/05 03:34:32;;;;;;;;;;;14.30;99.90;;;;;;5115970;28;19931;-41
2023/10/05 03:36:59;;;;;;;;;;;14.40;99.90;;;;;;5115845;28;19924;-41
2023/10/05 03:39:28;;;;;;;;;;;14.40;99.90;;;;;;5116084;28;19931;-41
2023/10/05 03:41:54;;;;;;;;;;;14.40;99.90;;;;;;5115800;28;20386;-41
2023/10/05 03:44:19;;;;;;;;;;;14.40;99.90;;;;;;5115636;27;20026;-41
2023/10/05 03:46:49;;;;;;;;;;;14.50;99.90;;;;;;5115896;28;20385;-41
2023/10/05 03:49:14;;;;;;;;;;;14.50;99.90;;;;;;5115438;28;19950;-41
2023/10/05 03:51:49;;;;;;;;;;;14.50;99.90;;;;;;5114795;28;20370;-41
2023/10/05 03:54:16;;;;;;;;;;;14.50;99.90;;;;;;5115618;28;20334;-41
2023/10/05 03:56:43;;;;;;;;;;;14.50;99.90;;;;;;5115245;28;19931;-41
2023/10/05 03:59:10;;;;;;;;;;;14.50;99.90;;;;;;5115241;28;20420;-41
2023/10/05 04:01:36;;;;;;;;;;;14.50;99.90;;;;;;5115264;28;19988;-42
2023/10/05 04:04:08;;;;;;;;;;;14.50;99.90;;;;;;5115380;28;20047;-41
2023/10/05 04:06:33;;;;;;;;;;;14.50;99.90;;;;;;5115246;27;19932;-41
2023/10/05 04:08:59;;;;;;;;;;;14.50;99.90;;;;;;5115065;28;20024;-41
2023/10/05 04:11:26;;;;;;;;;;;14.40;99.90;;;;;;5114995;28;19924;-41
2023/10/05 04:13:55;;;;;;;;;;;14.50;99.90;;;;;;5115262;28;19923;-41
2023/10/05 04:16:22;;;;;;;;;;;14.50;99.90;;;;;;5115395;28;19975;-41
2023/10/05 04:18:51;;;;;;;;;;;14.50;99.90;;;;;;5115092;28;19924;-41
2023/10/05 04:21:22;;;;;;;;;;;14.50;99.90;;;;;;5114969;28;19977;-41
2023/10/05 04:23:50;;;;;;;;;;;14.50;99.90;;;;;;5115032;28;19924;-41
2023/10/05 04:26:20;;;;;;;;;;;14.40;99.90;;;;;;5114914;28;19924;-41
2023/10/05 04:28:52;;;;;;;;;;;14.50;99.90;;;;;;5114993;27;19923;-41
2023/10/05 04:31:22;;;;;;;;;;;14.50;99.90;;;;;;5114970;28;19969;-41
2023/10/05 04:33:49;;;;;;;;;;;14.50;99.90;;;;;;5114945;28;20383;-41
2023/10/05 04:36:16;;;;;;;;;;;14.50;99.90;;;;;;5114737;28;19963;-40
2023/10/05 04:38:43;;;;;;;;;;;14.50;99.90;;;;;;5114561;28;20280;-41
2023/10/05 04:41:12;;;;;;;;;;;14.50;99.90;;;;;;5113836;28;19931;-41
2023/10/05 04:43:43;;;;;;;;;;;14.50;99.90;;;;;;5114739;28;19923;-41
2023/10/05 04:46:10;;;;;;;;;;;14.50;99.90;;;;;;5114805;28;19924;-41
2023/10/05 04:48:36;;;;;;;;;;;14.50;99.90;;;;;;5114698;28;19931;-41
2023/10/05 04:51:05;;;;;;;;;;;14.50;99.90;;;;;;5114532;28;19931;-42
2023/10/05 04:53:30;;;;;;;;;;;14.50;99.90;;;;;;5114425;28;19923;-41
2023/10/05 04:56:00;;;;;;;;;;;14.50;99.90;;;;;;5114625;28;19923;-41
2023/10/05 04:58:53;;;;;;;;;;;14.50;99.90;;;;;;5114515;28;19923;-41
2023/10/05 05:01:28;;;;;;;;;;;14.50;99.90;;;;;;5116692;28;19931;-41
2023/10/05 05:04:12;;;;;;;;;;;14.50;99.90;;;;;;5122065;27;19971;-41
2023/10/05 05:06:37;;;;;;;;;;;14.50;99.90;;;;;;5121596;27;19924;-41
2023/10/05 05:09:11;;;;;;;;;;;14.50;99.90;;;;;;5121107;28;19931;-41
2023/10/05 05:11:37;;;;;;;;;;;14.50;99.90;;;;;;5121162;28;19931;-41
2023/10/05 05:14:03;;;;;;;;;;;14.50;99.90;;;;;;5121072;28;19924;-41
2023/10/05 05:16:30;;;;;;;;;;;14.50;99.90;;;;;;5121206;27;19975;-41
2023/10/05 05:18:55;;;;;;;;;;;14.50;99.90;;;;;;5119820;28;19930;-41
2023/10/05 05:21:21;;;;;;;;;;;14.50;99.90;;;;;;5121141;28;20018;-41
2023/10/05 05:23:50;;;;;;;;;;;14.50;99.90;;;;;;5121132;28;19923;-41
2023/10/05 05:26:15;;;;;;;;;;;14.50;99.90;;;;;;5121201;27;19931;-41
2023/10/05 05:28:43;;;;;;;;;;;14.50;99.90;;;;;;5120935;28;19924;-41
2023/10/05 05:31:16;;;;;;;;;;;14.50;99.90;;;;;;5121204;27;19927;-41
2023/10/05 05:33:43;;;;;;;;;;;14.50;99.90;;;;;;5121312;27;19924;-42
2023/10/05 05:36:13;;;;;;;;;;;14.50;99.90;;;;;;5120954;27;19927;-41
2023/10/05 05:38:39;;;;;;;;;;;14.50;99.90;;;;;;5119928;28;20478;-41
2023/10/05 05:41:12;;;;;;;;;;;14.50;99.90;;;;;;5120089;28;19924;-42
2023/10/05 05:43:41;;;;;;;;;;;14.50;99.90;;;;;;5121004;28;19923;-41
2023/10/05 05:46:12;;;;;;;;;;;14.50;99.90;;;;;;5120053;28;19923;-41
2023/10/05 05:48:42;;;;;;;;;;;14.50;99.90;;;;;;5121142;27;20020;-41
2023/10/05 05:51:14;;;;;;;;;;;14.50;99.90;;;;;;5120855;27;20371;-41
2023/10/05 05:53:40;;;;;;;;;;;14.50;99.90;;;;;;5119983;28;19977;-41
2023/10/05 05:56:05;;;;;;;;;;;14.50;99.90;;;;;;5120744;27;20124;-41
2023/10/05 05:58:31;;;;;;;;;;;14.50;99.90;;;;;;5120805;28;20449;-41
2023/10/05 06:00:57;;;;;;;;;;;14.60;99.90;;;;;;5120948;27;19923;-41
2023/10/05 06:03:24;;;;;;;;;;;14.50;99.90;;;;;;5120684;27;19930;-42
2023/10/05 06:05:51;;;;;;;;;;;14.60;99.90;;;;;;5120789;27;19924;-41
2023/10/05 06:08:16;;;;;;;;;;;14.60;99.90;;;;;;5136618;27;19924;-41
2023/10/05 06:10:43;;;;;;;;;;;14.60;99.90;;;;;;5120410;27;20027;-41
2023/10/05 06:13:11;;;;;;;;;;;14.60;99.90;;;;;;5118512;27;19924;-41
2023/10/05 06:15:37;;;;;;;;;;;14.60;99.90;;;;;;5116544;28;19928;-41
2023/10/05 06:18:03;;;;;;;;;;;14.70;99.90;;;;;;5117493;28;19924;-41
2023/10/05 06:20:29;;;;;;;;;;;14.70;99.90;;;;;;5117301;28;20386;-41
2023/10/05 06:22:54;;;;;;;;;;;14.70;99.90;;;;;;5117187;28;19924;-41
2023/10/05 06:25:20;;;;;;;;;;;14.70;99.90;;;;;;5117042;28;19971;-41
2023/10/05 06:27:49;;;;;;;;;;;14.70;99.90;;;;;;5117348;28;19924;-41
2023/10/05 06:30:14;;;;;;;;;;;14.80;99.90;;;;;;5117059;28;20382;-41
2023/10/05 06:32:42;;;;;;;;;;;14.80;99.90;;;;;;5117395;28;20073;-41
2023/10/05 06:35:08;;;;;;;;;;;14.80;99.90;;;;;;5117059;28;20379;-41
2023/10/05 06:37:34;;;;;;;;;;;14.80;99.90;;;;;;5116927;28;19923;-41
2023/10/05 06:39:59;;;;;;;;;;;14.80;99.90;;;;;;5117104;28;19924;-41
2023/10/05 06:42:25;;;;;;;;;;;14.90;99.90;;;;;;5116062;28;19946;-41
2023/10/05 06:44:51;;;;;;;;;;;14.90;99.90;;;;;;5117112;28;20401;-41
2023/10/05 06:47:36;;;;;;;;;;;14.90;99.90;;;;;;5116681;28;19924;-42
2023/10/05 06:50:03;;;;;;;;;;;14.80;99.90;;;;;;5116669;28;19976;-42
2023/10/05 06:52:29;;;;;;;;;;;14.90;99.90;;;;;;5116832;28;19983;-41
2023/10/05 06:54:55;;;;;;;;;;;14.90;99.90;;;;;;5115532;28;20302;-41
2023/10/05 06:57:21;;;;;;;;;;;14.90;99.90;;;;;;5116715;28;19924;-41
2023/10/05 06:59:46;;;;;;;;;;;14.90;99.90;;;;;;5115604;28;19930;-41
2023/10/05 07:02:12;;;;;;;;;;;14.90;99.90;;;;;;5116361;28;19923;-41
2023/10/05 07:04:38;;;;;;;;;;;14.90;99.90;;;;;;5116298;28;19924;-42
2023/10/05 07:07:03;;;;;;;;;;;14.90;99.90;;;;;;5116732;28;20342;-41
2023/10/05 07:09:30;;;;;;;;;;;14.90;99.90;;;;;;5116357;28;19928;-40
2023/10/05 07:11:55;;;;;;;;;;;15.00;99.90;;;;;;5116324;28;20018;-41
2023/10/05 07:14:21;;;;;;;;;;;14.90;99.90;;;;;;5116176;28;19973;-41
2023/10/05 07:16:47;;;;;;;;;;;15.00;99.90;;;;;;5116240;28;19924;-41
2023/10/05 07:19:12;;;;;;;;;;;15.00;99.90;;;;;;5116001;28;19947;-41
2023/10/05 07:21:38;;;;;;;;;;;15.00;99.90;;;;;;5116207;28;19931;-41
2023/10/05 07:24:04;;;;;;;;;;;15.00;99.90;;;;;;5116039;28;19923;-41
2023/10/05 07:26:30;;;;;;;;;;;15.00;99.90;;;;;;5116186;28;19974;-41
2023/10/05 07:28:55;;;;;;;;;;;15.00;99.90;;;;;;5115954;28;20377;-40
2023/10/05 07:31:22;;;;;;;;;;;15.00;99.90;;;;;;5115867;28;19924;-39
2023/10/05 07:33:48;;;;;;;;;;;15.00;99.90;;;;;;5115853;28;19930;-40
2023/10/05 07:36:14;;;;;;;;;;;15.00;99.90;;;;;;5115659;28;19932;-40
2023/10/05 07:38:40;;;;;;;;;;;15.10;99.90;;;;;;5116369;28;19992;-40
2023/10/05 07:41:07;;;;;;;;;;;15.10;99.90;;;;;;5115855;28;19923;-40
2023/10/05 07:43:34;;;;;;;;;;;15.10;99.90;;;;;;5115790;28;19932;-40
2023/10/05 07:46:00;;;;;;;;;;;15.10;99.90;;;;;;5115518;28;20025;-40
2023/10/05 07:48:26;;;;;;;;;;;15.20;99.90;;;;;;5115634;28;20411;-40
2023/10/05 07:50:52;;;;;;;;;;;15.10;99.90;;;;;;5115449;28;19927;-40
2023/10/05 07:53:19;;;;;;;;;;;15.10;99.90;;;;;;5115596;28;19927;-39
2023/10/05 07:55:45;;;;;;;;;;;15.10;99.90;;;;;;5115702;28;19924;-39
2023/10/05 07:58:12;;;;;;;;;;;15.10;99.90;;;;;;5115659;28;20068;-40
2023/10/05 08:00:37;;;;;;;;;;;15.10;99.90;;;;;;5115535;28;19931;-39
2023/10/05 08:03:05;;;;;;;;;;;15.00;99.90;;;;;;5113932;28;19924;-40
2023/10/05 08:05:31;;;;;;;;;;;15.00;99.90;;;;;;5115352;28;19924;-40
2023/10/05 08:07:58;;;;;;;;;;;15.00;99.90;;;;;;5115345;27;19924;-40
2023/10/05 08:10:23;;;;;;;;;;;15.00;99.90;;;;;;5115328;28;19946;-39
2023/10/05 08:12:49;;;;;;;;;;;14.90;99.90;;;;;;5115146;28;19928;-40
2023/10/05 08:15:18;;;;;;;;;;;14.90;99.90;;;;;;5115144;28;19924;-39
2023/10/05 08:17:48;;;;;;;;;;;14.90;99.90;;;;;;5115087;28;20022;-39
2023/10/05 08:20:15;;;;;;;;;;;14.90;99.90;;;;;;5115148;28;19923;-41
2023/10/05 08:22:41;;;;;;;;;;;14.90;99.90;;;;;;5115095;28;19974;-41
2023/10/05 08:25:11;;;;;;;;;;;14.90;99.90;;;;;;5114829;28;19930;-41
2023/10/05 08:27:38;;;;;;;;;;;14.90;99.90;;;;;;5115376;28;19930;-41
2023/10/05 08:30:08;;;;;;;;;;;14.90;99.90;;;;;;5115019;28;20374;-42
2023/10/05 08:32:34;;;;;;;;;;;14.90;99.90;;;;;;5115027;28;19979;-41
2023/10/05 08:35:07;;;;;;;;;;;14.90;99.90;;;;;;5114814;28;19935;-41
2023/10/05 08:37:42;;;;;;;;;;;14.90;99.90;;;;;;5114570;28;19931;-41
2023/10/05 08:43:08;;;;;;;;;;;14.90;99.90;;;;;;5114721;28;20341;-40
2023/10/05 08:45:38;;;;;;;;;;;14.90;99.90;;;;;;5115002;28;19924;-41
2023/10/05 08:48:08;;;;;;;;;;;14.90;99.90;;;;;;5114700;28;19975;-41
2023/10/05 08:50:35;;;;;;;;;;;14.90;99.90;;;;;;5114693;28;19924;-41
2023/10/05 08:53:01;;;;;;;;;;;14.90;99.90;;;;;;5114590;28;20029;-41
2023/10/05 08:55:30;;;;;;;;;;;14.90;99.90;;;;;;5114528;28;19935;-41
2023/10/05 08:57:55;;;;;;;;;;;14.90;99.90;;;;;;5114543;28;20001;-42
2023/10/05 09:00:38;;;;;;;;;;;14.90;99.90;;;;;;5114605;28;20401;-41
2023/10/05 09:03:13;;;;;;;;;;;15.00;99.90;;;;;;5114279;28;20399;-42
2023/10/05 09:06:12;;;;;;;;;;;15.00;99.90;;;;;;5114429;28;19970;-40
2023/10/05 09:08:51;;;;;;;;;;;15.00;99.90;;;;;;5114776;28;19923;-41
2023/10/05 09:11:26;;;;;;;;;;;15.10;99.90;;;;;;5114765;28;20344;-41
2023/10/05 09:13:52;;;;;;;;;;;15.20;99.90;;;;;;5114443;28;19924;-41
2023/10/05 09:16:22;;;;;;;;;;;15.20;99.90;;;;;;5114194;28;20116;-41
2023/10/05 09:18:48;;;;;;;;;;;15.30;99.90;;;;;;5114433;28;20038;-42
2023/10/05 09:21:18;;;;;;;;;;;15.30;99.90;;;;;;5114429;28;20032;-41
2023/10/05 09:23:44;;;;;;;;;;;15.40;99.90;;;;;;5114229;28;19924;-40
2023/10/05 09:26:33;;;;;;;;;;;15.50;99.90;;;;;;5114017;28;20387;-41
2023/10/05 09:29:20;;;;;;;;;;;15.50;99.90;;;;;;5114497;28;19951;-41
2023/10/05 09:31:50;;;;;;;;;;;15.60;99.90;;;;;;5113925;28;20470;-40
2023/10/05 09:34:36;;;;;;;;;;;15.60;99.90;;;;;;5114475;28;19969;-41
2023/10/05 09:37:06;;;;;;;;;;;15.60;99.90;;;;;;5113550;28;20018;-42
2023/10/05 09:39:46;;;;;;;;;;;15.60;99.90;;;;;;5114434;28;19924;-42
2023/10/05 09:42:25;;;;;;;;;;;15.60;99.90;;;;;;5114353;28;19970;-43
2023/10/05 09:44:57;;;;;;;;;;;15.60;99.90;;;;;;5114310;28;19931;-42
2023/10/05 09:47:26;;;;;;;;;;;15.60;99.90;;;;;;5113996;28;19949;-42
2023/10/05 09:49:53;;;;;;;;;;;15.70;99.90;;;;;;5117356;28;19982;-42
2023/10/05 09:52:21;;;;;;;;;;;15.70;99.90;;;;;;5117986;27;19924;-41
2023/10/05 09:54:50;;;;;;;;;;;15.80;99.90;;;;;;5117930;28;19923;-41
2023/10/05 09:57:20;;;;;;;;;;;15.90;99.90;;;;;;5117816;28;19924;-40
2023/10/05 10:00:13;;;;;;;;;;;16.00;99.90;;;;;;5117693;28;19924;-41
2023/10/05 10:02:33;;;;;;;;;;;16.10;99.90;;;;;;5117114;28;19923;-41
2023/10/05 10:05:00;;;;;;;;;;;16.10;99.90;;;;;;5117770;28;20288;-41
2023/10/05 10:07:32;;;;;;;;;;;16.10;99.90;;;;;;5117908;28;20382;-42
2023/10/05 10:09:58;;;;;;;;;;;16.30;99.90;;;;;;5117712;28;19923;-42
2023/10/05 10:12:35;;;;;;;;;;;16.20;99.90;;;;;;5116535;28;19931;-42
2023/10/05 10:15:00;;;;;;;;;;;16.30;99.90;;;;;;5117650;28;19924;-42
2023/10/05 10:17:30;;;;;;;;;;;16.20;99.90;;;;;;5117353;28;20320;-40
2023/10/05 10:20:05;;;;;;;;;;;16.20;99.90;;;;;;5116486;28;19923;-41
2023/10/05 10:22:45;;;;;;;;;;;16.20;99.90;;;;;;5117523;28;19924;-41
2023/10/05 10:25:30;;;;;;;;;;;16.20;99.90;;;;;;5117180;28;19923;-40
2023/10/05 10:28:16;;;;;;;;;;;16.20;99.90;;;;;;5117240;28;20073;-40
2023/10/05 10:30:46;;;;;;;;;;;16.30;99.90;;;;;;5117260;28;20298;-40
2023/10/05 10:33:30;;;;;;;;;;;16.30;99.90;;;;;;5116947;28;19924;-41
2023/10/05 10:35:57;;;;;;;;;;;16.30;99.90;;;;;;5117213;28;19976;-40
2023/10/05 10:38:23;;;;;;;;;;;16.30;99.90;;;;;;5117110;28;20379;-40
2023/10/05 10:41:15;;;;;;;;;;;16.30;99.90;;;;;;5116090;28;20335;-40
2023/10/05 10:43:45;;;;;;;;;;;16.30;99.90;;;;;;5117090;28;19931;-40
2023/10/05 10:46:20;;;;;;;;;;;16.30;99.90;;;;;;5116960;28;19923;-39
2023/10/05 10:48:53;;;;;;;;;;;16.30;99.90;;;;;;5116999;27;20022;-39
2023/10/05 10:51:21;;;;;;;;;;;16.20;99.90;;;;;;5116879;28;20014;-39
2023/10/05 10:53:47;;;;;;;;;;;16.20;99.90;;;;;;5115796;28;19924;-40
2023/10/05 10:56:21;;;;;;;;;;;16.20;99.90;;;;;;5116643;28;19923;-40
2023/10/05 10:58:56;;;;;;;;;;;16.10;99.90;;;;;;5115199;28;20379;-40
2023/10/05 11:01:29;;;;;;;;;;;16.10;99.90;;;;;;5117017;28;19923;-41
2023/10/05 11:04:01;;;;;;;;;;;16.00;99.90;;;;;;5114916;28;20392;-40
2023/10/05 11:06:28;;;;;;;;;;;16.00;99.90;;;;;;5116706;28;19992;-41
2023/10/05 11:08:54;;;;;;;;;;;16.00;99.90;;;;;;5116369;28;20015;-41
2023/10/05 11:11:19;;;;;;;;;;;15.90;99.90;;;;;;5116509;28;19934;-42
2023/10/05 11:13:49;;;;;;;;;;;15.90;99.90;;;;;;5116410;28;20314;-42
2023/10/05 11:16:19;;;;;;;;;;;15.90;99.90;;;;;;5115367;28;19930;-41
2023/10/05 11:18:57;;;;;;;;;;;15.90;99.90;;;;;;5116204;28;20330;-41
2023/10/05 11:21:24;;;;;;;;;;;15.90;99.90;;;;;;5116142;28;19975;-41
2023/10/05 11:23:57;;;;;;;;;;;15.80;99.90;;;;;;5116330;28;19928;-41
2023/10/05 11:26:33;;;;;;;;;;;15.80;99.90;;;;;;5115067;28;19931;-40
2023/10/05 11:29:15;;;;;;;;;;;15.80;99.90;;;;;;5116141;28;19923;-41
2023/10/05 11:31:41;;;;;;;;;;;15.90;99.90;;;;;;5115948;28;19931;-40
2023/10/05 11:34:11;;;;;;;;;;;15.90;99.90;;;;;;5131688;27;19928;-40
2023/10/05 11:36:39;;;;;;;;;;;15.90;99.90;;;;;;5116024;28;19924;-40
2023/10/05 11:39:21;;;;;;;;;;;15.90;99.90;;;;;;5114581;28;19923;-40
2023/10/05 11:41:47;;;;;;;;;;;15.90;99.90;;;;;;5116054;28;19923;-40
2023/10/05 11:44:20;;;;;;;;;;;16.00;99.90;;;;;;5115600;28;19931;-40
2023/10/05 11:46:46;;;;;;;;;;;16.10;99.90;;;;;;5115945;28;20329;-40
2023/10/05 11:49:13;;;;;;;;;;;16.10;99.90;;;;;;5115737;28;19931;-41
2023/10/05 11:51:41;;;;;;;;;;;16.10;99.90;;;;;;5115925;28;19924;-40
2023/10/05 11:54:11;;;;;;;;;;;16.10;99.90;;;;;;5115619;28;19927;-41
2023/10/05 11:56:38;;;;;;;;;;;16.20;99.90;;;;;;5115386;28;19927;-40
2023/10/05 11:59:05;;;;;;;;;;;16.20;99.90;;;;;;5115242;28;19928;-41
2023/10/05 12:01:32;;;;;;;;;;;16.20;99.90;;;;;;5115544;28;19924;-41
2023/10/05 12:03:58;;;;;;;;;;;16.30;99.90;;;;;;5115165;28;20015;-40
2023/10/05 12:06:25;;;;;;;;;;;16.30;99.90;;;;;;5115455;28;19967;-40
2023/10/05 12:08:53;;;;;;;;;;;16.30;99.90;;;;;;5114395;28;19932;-40
2023/10/05 12:11:25;;;;;;;;;;;16.40;99.90;;;;;;5114311;28;19924;-41
2023/10/05 12:13:56;;;;;;;;;;;16.50;99.90;;;;;;5115666;28;19930;-41
2023/10/05 12:16:27;;;;;;;;;;;16.60;99.90;;;;;;5115305;28;19923;-41
2023/10/05 12:18:54;;;;;;;;;;;16.60;99.90;;;;;;5115225;28;19986;-41
2023/10/05 12:21:22;;;;;;;;;;;16.60;99.90;;;;;;5115110;28;20556;-41
2023/10/05 12:23:48;;;;;;;;;;;16.70;99.90;;;;;;5114995;28;19924;-41
2023/10/05 12:26:15;;;;;;;;;;;16.80;99.90;;;;;;5115099;28;19935;-41
2023/10/05 12:28:41;;;;;;;;;;;16.80;99.90;;;;;;5113859;28;20045;-40
2023/10/05 12:31:09;;;;;;;;;;;16.80;99.90;;;;;;5115059;28;20034;-41
2023/10/05 12:33:35;;;;;;;;;;;16.80;99.90;;;;;;5115189;28;19931;-41
2023/10/05 12:36:01;;;;;;;;;;;16.70;99.90;;;;;;5114758;28;19923;-41
2023/10/05 12:38:27;;;;;;;;;;;16.70;99.90;;;;;;5114745;28;19930;-41
2023/10/05 12:40:54;;;;;;;;;;;16.60;99.90;;;;;;5113659;28;19927;-41
2023/10/05 12:43:21;;;;;;;;;;;16.60;99.90;;;;;;5114834;28;19935;-41
2023/10/05 12:45:46;;;;;;;;;;;16.50;99.90;;;;;;5114789;28;19924;-41
2023/10/05 12:48:12;;;;;;;;;;;16.50;99.90;;;;;;5114689;28;19923;-40
2023/10/05 12:50:39;;;;;;;;;;;16.40;99.90;;;;;;5113569;28;20018;-40
2023/10/05 12:53:05;;;;;;;;;;;16.30;99.90;;;;;;5114592;28;19933;-41
2023/10/05 12:55:32;;;;;;;;;;;16.30;99.90;;;;;;5114405;28;19924;-40
2023/10/05 12:57:57;;;;;;;;;;;16.20;99.90;;;;;;5114567;28;19931;-40
2023/10/05 13:00:43;;;;;;;;;;;16.10;99.90;;;;;;5114618;28;19924;-42
2023/10/05 13:03:12;;;;;;;;;;;16.00;99.90;;;;;;5113356;28;20378;-41
2023/10/05 13:05:43;;;;;;;;;;;16.00;99.90;;;;;;5114483;28;19924;-41
2023/10/05 13:08:10;;;;;;;;;;;15.90;99.90;;;;;;5114561;28;19995;-41
2023/10/05 13:10:37;;;;;;;;;;;15.90;99.90;;;;;;5114279;28;20290;-40
2023/10/05 13:13:09;;;;;;;;;;;15.90;99.90;;;;;;5114684;28;19924;-41
2023/10/05 13:15:36;;;;;;;;;;;15.90;99.90;;;;;;5114573;28;19931;-40
2023/10/05 13:18:20;;;;;;;;;;;16.00;99.90;;;;;;5114429;28;19931;-40
2023/10/05 13:20:47;;;;;;;;;;;16.00;99.90;;;;;;5114974;28;20286;-40
2023/10/05 13:23:13;;;;;;;;;;;16.00;99.90;;;;;;5116729;28;20295;-40
2023/10/05 13:25:47;;;;;;;;;;;16.00;99.90;;;;;;5118696;28;19930;-40
2023/10/05 13:28:16;;;;;;;;;;;16.10;99.90;;;;;;5118377;27;19976;-40
2023/10/05 13:30:50;;;;;;;;;;;16.20;99.90;;;;;;5118320;28;19976;-40
2023/10/05 13:33:28;;;;;;;;;;;16.20;99.90;;;;;;5118570;28;20370;-40
2023/10/05 13:35:55;;;;;;;;;;;16.20;99.90;;;;;;5118833;28;20294;-40
2023/10/05 13:38:28;;;;;;;;;;;16.30;99.90;;;;;;5118208;28;19924;-40
2023/10/05 13:40:57;;;;;;;;;;;16.30;99.90;;;;;;5117389;28;19924;-41
2023/10/05 13:43:26;;;;;;;;;;;16.40;99.90;;;;;;5117977;28;19924;-40
2023/10/05 13:45:52;;;;;;;;;;;16.40;99.90;;;;;;5118154;28;19931;-40
2023/10/05 13:48:18;;;;;;;;;;;16.50;99.90;;;;;;5118137;28;20069;-41
2023/10/05 13:50:47;;;;;;;;;;;16.50;99.90;;;;;;5118362;28;19971;-41
2023/10/05 13:53:13;;;;;;;;;;;16.50;99.90;;;;;;5117045;28;19930;-41
2023/10/05 13:55:38;;;;;;;;;;;16.60;99.90;;;;;;5117969;28;20026;-43
2023/10/05 13:58:05;;;;;;;;;;;16.60;99.90;;;;;;5117550;28;19928;-41
2023/10/05 14:00:30;;;;;;;;;;;16.60;99.90;;;;;;5117808;27;19931;-41
2023/10/05 14:02:58;;;;;;;;;;;16.70;99.90;;;;;;5117509;28;19924;-42
2023/10/05 14:05:23;;;;;;;;;;;16.80;99.90;;;;;;5117687;28;19930;-41
2023/10/05 14:07:51;;;;;;;;;;;16.80;99.90;;;;;;5117707;28;19928;-41
2023/10/05 14:10:23;;;;;;;;;;;16.90;99.90;;;;;;5117469;28;19927;-41
2023/10/05 14:12:49;;;;;;;;;;;16.90;99.90;;;;;;5117799;28;20023;-42
2023/10/05 14:15:19;;;;;;;;;;;17.00;99.90;;;;;;5117635;28;19979;-41
2023/10/05 14:17:46;;;;;;;;;;;16.90;99.90;;;;;;5117364;27;19931;-42
2023/10/05 14:20:13;;;;;;;;;;;17.00;99.90;;;;;;5117669;28;19924;-41
2023/10/05 14:22:39;;;;;;;;;;;17.00;99.90;;;;;;5117284;28;19977;-41
2023/10/05 14:25:07;;;;;;;;;;;17.10;99.90;;;;;;5117283;28;19924;-41
2023/10/05 14:27:34;;;;;;;;;;;17.10;99.90;;;;;;5116476;28;20024;-41
2023/10/05 14:30:06;;;;;;;;;;;17.10;99.90;;;;;;5117201;28;19934;-42
2023/10/05 14:32:36;;;;;;;;;;;17.10;99.90;;;;;;5117404;28;19924;-41
2023/10/05 14:35:09;;;;;;;;;;;17.20;99.90;;;;;;5116089;28;19923;-41
2023/10/05 14:37:40;;;;;;;;;;;17.20;99.90;;;;;;5117040;28;19924;-42
2023/10/05 14:40:06;;;;;;;;;;;17.20;99.90;;;;;;5117171;28;19930;-41
2023/10/05 14:42:32;;;;;;;;;;;17.20;99.90;;;;;;5117088;28;19967;-41
2023/10/05 14:44:57;;;;;;;;;;;17.10;99.90;;;;;;5117030;28;19959;-42
2023/10/05 14:47:23;;;;;;;;;;;17.10;99.90;;;;;;5116941;28;19931;-41